createdAt,value
2022-10-20T00:02:11.583Z,5.60
2022-10-20T00:04:38.214Z,5.97
2022-10-20T00:07:04.756Z,5.60
2022-10-20T00:09:31.332Z,6.00
2022-10-20T00:11:57.841Z,5.63
2022-10-20T00:14:24.330Z,6.07
2022-10-20T00:16:50.842Z,6.57
2022-10-20T00:19:17.443Z,5.80
2022-10-20T00:21:44.013Z,6.07
2022-10-20T00:24:10.514Z,6.23
2022-10-20T00:26:37.493Z,6.57
2022-10-20T00:29:04.710Z,6.10
2022-10-20T00:31:32.135Z,5.83
2022-10-20T00:33:59.061Z,6.33
2022-10-20T00:36:26.178Z,5.70
2022-10-20T00:38:58.417Z,6.87
2022-10-20T00:41:25.033Z,5.17
2022-10-20T00:43:57.499Z,6.60
2022-10-20T00:46:45.480Z,6.17
2022-10-20T00:49:21.061Z,6.10
2022-10-20T00:51:49.385Z,6.47
2022-10-20T00:54:19.722Z,6.13
2022-10-20T00:56:49.105Z,6.03
2022-10-20T00:59:20.077Z,6.30
2022-10-20T01:01:46.800Z,6.50
2022-10-20T01:04:13.641Z,6.37
2022-10-20T01:06:40.456Z,6.20
2022-10-20T01:09:07.739Z,6.93
2022-10-20T01:12:10.027Z,7.10
2022-10-20T01:15:14.674Z,6.97
2022-10-20T01:17:47.421Z,7.10
2022-10-20T01:20:36.874Z,7.27
2022-10-20T01:23:18.669Z,7.10
2022-10-20T01:26:11.614Z,6.20
2022-10-20T01:28:38.159Z,6.90
2022-10-20T01:31:16.366Z,7.10
2022-10-20T01:34:06.130Z,6.53
2022-10-20T01:36:46.652Z,7.07
2022-10-20T01:39:28.514Z,7.00
2022-10-20T01:42:01.170Z,7.47
2022-10-20T01:44:30.400Z,7.17
2022-10-20T01:46:58.701Z,7.37
2022-10-20T01:49:26.502Z,7.27
2022-10-20T01:51:53.889Z,7.60
2022-10-20T01:54:29.449Z,7.17
2022-10-20T01:57:39.550Z,7.40
2022-10-20T02:00:11.408Z,7.43
2022-10-20T02:02:52.967Z,7.23
2022-10-20T02:05:33.669Z,7.30
2022-10-20T02:08:18.571Z,6.97
2022-10-20T02:10:48.688Z,7.57
2022-10-20T02:13:18.166Z,7.73
2022-10-20T02:15:53.959Z,7.27
2022-10-20T02:18:42.421Z,6.93
2022-10-20T02:21:10.302Z,7.77
2022-10-20T02:23:40.474Z,8.17
2022-10-20T02:26:09.515Z,7.40
2022-10-20T02:28:40.776Z,7.50
2022-10-20T02:31:08.198Z,7.97
2022-10-20T02:33:35.743Z,8.00
2022-10-20T02:36:05.817Z,7.93
2022-10-20T02:38:32.741Z,7.73
2022-10-20T02:40:59.371Z,7.80
2022-10-20T02:43:25.917Z,8.03
2022-10-20T02:45:52.418Z,8.30
2022-10-20T02:48:18.972Z,8.67
2022-10-20T02:50:45.445Z,8.47
2022-10-20T02:53:11.956Z,7.50
2022-10-20T02:55:38.732Z,7.30
2022-10-20T02:58:05.215Z,7.67
2022-10-20T03:00:32.064Z,8.17
2022-10-20T03:02:58.726Z,8.53
2022-10-20T03:05:25.255Z,7.47
2022-10-20T03:07:51.824Z,7.77
2022-10-20T03:10:18.404Z,7.97
2022-10-20T03:12:45.123Z,7.90
2022-10-20T03:15:11.932Z,8.00
2022-10-20T03:17:38.729Z,7.57
2022-10-20T03:22:45.620Z,7.73
2022-10-20T03:25:12.138Z,7.53
2022-10-20T03:27:38.849Z,7.70
2022-10-20T03:30:06.157Z,8.80
2022-10-20T03:32:32.727Z,7.93
2022-10-20T03:34:59.248Z,8.17
2022-10-20T03:37:25.733Z,7.40
2022-10-20T03:39:52.429Z,8.20
2022-10-20T03:42:18.968Z,7.23
2022-10-20T03:44:46.035Z,8.13
2022-10-20T03:47:13.708Z,7.87
2022-10-20T03:49:40.705Z,7.77
2022-10-20T03:52:07.264Z,7.20
2022-10-20T03:54:36.077Z,7.20
2022-10-20T03:57:06.807Z,7.43
2022-10-20T03:59:34.837Z,8.20
2022-10-20T04:02:01.559Z,7.67
2022-10-20T04:04:28.173Z,7.70
2022-10-20T04:06:54.718Z,7.37
2022-10-20T04:09:21.263Z,7.83
2022-10-20T04:11:47.791Z,7.53
2022-10-20T04:14:14.580Z,7.83
2022-10-20T04:16:42.117Z,8.10
2022-10-20T04:19:08.898Z,8.20
2022-10-20T04:21:35.407Z,8.23
2022-10-20T04:24:02.714Z,8.57
2022-10-20T04:26:29.235Z,7.07
2022-10-20T04:28:57.198Z,8.07
2022-10-20T04:31:23.713Z,7.57
2022-10-20T04:33:50.219Z,8.00
2022-10-20T04:36:16.819Z,7.60
2022-10-20T04:38:43.874Z,8.17
2022-10-20T04:41:10.441Z,7.73
2022-10-20T04:43:36.969Z,7.23
2022-10-20T04:46:08.306Z,8.00
2022-10-20T04:48:36.228Z,8.47
2022-10-20T04:51:08.424Z,8.00
2022-10-20T04:53:35.660Z,7.93
2022-10-20T04:56:03.143Z,8.33
2022-10-20T04:58:29.842Z,7.93
2022-10-20T05:01:10.125Z,7.57
2022-10-20T05:03:37.456Z,7.90
2022-10-20T05:06:15.407Z,7.73
2022-10-20T05:08:43.638Z,8.40
2022-10-20T05:11:11.909Z,7.83
2022-10-20T05:13:38.573Z,7.43
2022-10-20T05:16:06.088Z,7.87
2022-10-20T05:18:33.287Z,7.33
2022-10-20T05:21:15.029Z,7.20
2022-10-20T05:23:42.921Z,7.50
2022-10-20T05:26:12.715Z,8.63
2022-10-20T05:28:42.620Z,8.27
2022-10-20T05:31:09.525Z,8.40
2022-10-20T05:33:36.735Z,7.40
2022-10-20T05:36:10.898Z,7.80
2022-10-20T05:38:37.839Z,7.67
2022-10-20T05:41:11.888Z,7.17
2022-10-20T05:43:39.230Z,7.73
2022-10-20T05:46:06.640Z,7.77
2022-10-20T05:48:33.661Z,7.50
2022-10-20T05:51:21.409Z,8.20
2022-10-20T05:53:47.959Z,8.00
2022-10-20T05:56:17.941Z,7.40
2022-10-20T05:58:46.012Z,7.73
2022-10-20T06:01:19.294Z,7.57
2022-10-20T06:03:49.411Z,7.53
2022-10-20T06:06:16.282Z,7.43
2022-10-20T06:08:42.976Z,8.70
2022-10-20T06:11:12.391Z,7.77
2022-10-20T06:13:39.036Z,8.10
2022-10-20T06:16:06.970Z,8.13
2022-10-20T06:18:34.599Z,8.70
2022-10-20T06:21:03.978Z,7.87
2022-10-20T06:23:30.514Z,7.37
2022-10-20T06:26:02.547Z,7.37
2022-10-20T06:28:31.474Z,7.77
2022-10-20T06:30:58.013Z,8.03
2022-10-20T06:33:24.963Z,7.70
2022-10-20T06:35:51.785Z,7.60
2022-10-20T06:38:18.264Z,7.37
2022-10-20T06:40:44.744Z,7.17
2022-10-20T06:43:11.997Z,7.23
2022-10-20T06:45:38.463Z,6.90
2022-10-20T06:48:05.286Z,6.77
2022-10-20T06:50:34.106Z,6.53
2022-10-20T06:53:00.953Z,7.07
2022-10-20T06:55:27.433Z,6.57
2022-10-20T06:57:53.935Z,6.20
2022-10-20T07:00:20.984Z,7.10
2022-10-20T07:02:47.472Z,6.50
2022-10-20T07:05:14.043Z,6.80
2022-10-20T07:07:41.620Z,6.53
2022-10-20T07:10:08.475Z,6.63
2022-10-20T07:12:35.485Z,6.70
2022-10-20T07:15:05.100Z,5.87
2022-10-20T07:17:32.170Z,6.00
2022-10-20T07:19:58.670Z,6.00
2022-10-20T07:22:25.217Z,5.90
2022-10-20T07:24:51.993Z,6.37
2022-10-20T07:27:18.466Z,6.50
2022-10-20T07:29:45.048Z,6.10
2022-10-20T07:32:11.542Z,6.00
2022-10-20T07:34:38.028Z,5.93
2022-10-20T07:37:04.772Z,6.17
2022-10-20T07:39:31.347Z,5.97
2022-10-20T07:41:57.871Z,5.70
2022-10-20T07:44:24.457Z,5.73
2022-10-20T07:46:51.054Z,5.90
2022-10-20T07:52:04.411Z,6.17
2022-10-20T07:54:31.052Z,7.13
2022-10-20T07:56:57.713Z,6.23
2022-10-20T07:59:24.532Z,5.90
2022-10-20T08:01:54.651Z,6.27
2022-10-20T08:04:23.959Z,5.80
2022-10-20T08:06:50.446Z,5.87
2022-10-20T08:09:17.074Z,6.07
2022-10-20T08:11:43.554Z,6.47
2022-10-20T08:14:10.158Z,6.50
2022-10-20T08:16:37.125Z,6.47
2022-10-20T08:19:10.630Z,5.77
2022-10-20T08:21:37.149Z,6.30
2022-10-20T08:24:03.967Z,6.17
2022-10-20T08:26:30.497Z,6.20
2022-10-20T08:28:57.090Z,6.70
2022-10-20T08:31:23.822Z,6.23
2022-10-20T08:33:52.857Z,6.47
2022-10-20T08:36:22.110Z,6.10
2022-10-20T08:38:48.976Z,5.80
2022-10-20T08:41:21.522Z,6.03
2022-10-20T08:43:51.625Z,6.23
2022-10-20T08:46:20.617Z,6.03
2022-10-20T08:48:48.879Z,5.77
2022-10-20T08:51:19.965Z,5.70
2022-10-20T08:53:48.776Z,6.37
2022-10-20T08:56:15.549Z,6.07
2022-10-20T08:58:46.461Z,6.20
2022-10-20T09:01:36.617Z,5.90
2022-10-20T09:04:13.885Z,5.73
2022-10-20T09:06:44.075Z,6.17
2022-10-20T09:09:18.059Z,5.87
2022-10-20T09:11:44.759Z,6.37
2022-10-20T09:14:12.351Z,6.60
2022-10-20T09:16:59.353Z,6.33
2022-10-20T09:19:27.312Z,5.97
2022-10-20T09:21:58.028Z,6.00
2022-10-20T09:24:30.060Z,5.93
2022-10-20T09:26:59.629Z,5.57
2022-10-20T09:29:38.288Z,5.77
2022-10-20T09:32:51.420Z,5.97
2022-10-20T09:35:30.485Z,5.93
2022-10-20T09:37:57.151Z,6.00
2022-10-20T09:40:26.421Z,6.13
2022-10-20T09:42:57.003Z,6.10
2022-10-20T09:45:28.877Z,6.00
2022-10-20T09:48:23.713Z,5.57
2022-10-20T09:50:55.212Z,5.80
2022-10-20T09:53:26.971Z,5.93
2022-10-20T09:55:53.727Z,6.00
2022-10-20T09:58:30.531Z,6.00
2022-10-20T10:01:18.694Z,5.63
2022-10-20T10:03:47.762Z,5.53
2022-10-20T10:06:28.919Z,5.77
2022-10-20T10:08:57.419Z,5.97
2022-10-20T10:11:35.565Z,5.97
2022-10-20T10:14:03.398Z,6.27
2022-10-20T10:16:41.204Z,6.20
2022-10-20T10:19:08.109Z,5.80
2022-10-20T10:21:51.870Z,6.10
2022-10-20T10:24:39.278Z,6.37
2022-10-20T10:27:19.804Z,6.20
2022-10-20T10:29:48.850Z,6.87
2022-10-20T10:32:28.616Z,6.40
2022-10-20T10:35:16.575Z,5.77
2022-10-20T10:37:45.032Z,5.73
2022-10-20T10:40:18.701Z,6.23
2022-10-20T10:43:05.655Z,5.90
2022-10-20T10:45:44.953Z,6.40
2022-10-20T10:48:53.013Z,5.67
2022-10-20T10:51:37.998Z,7.07
2022-10-20T10:54:25.976Z,6.37
2022-10-20T10:57:00.469Z,6.33
2022-10-20T10:59:36.013Z,6.57
2022-10-20T11:02:36.853Z,6.43
2022-10-20T11:05:22.539Z,6.30
2022-10-20T11:08:13.739Z,6.30
2022-10-20T11:11:00.125Z,6.60
2022-10-20T11:14:04.937Z,6.10
2022-10-20T11:17:05.518Z,6.57
2022-10-20T11:22:33.747Z,6.43
2022-10-20T11:25:29.779Z,6.10
2022-10-20T11:27:58.968Z,7.30
2022-10-20T11:30:27.517Z,6.83
2022-10-20T11:33:03.392Z,6.10
2022-10-20T11:35:44.838Z,6.50
2022-10-20T11:38:20.945Z,6.33
2022-10-20T11:40:59.481Z,7.07
2022-10-20T11:43:29.303Z,7.17
2022-10-20T11:46:08.111Z,7.37
2022-10-20T11:48:47.427Z,7.33
2022-10-20T11:51:31.905Z,7.83
2022-10-20T11:53:58.757Z,8.50
2022-10-20T11:57:05.804Z,7.90
2022-10-20T11:59:57.840Z,8.13
2022-10-20T12:03:06.566Z,8.13
2022-10-20T12:06:14.868Z,8.60
2022-10-20T12:09:25.739Z,8.77
2022-10-20T12:12:00.504Z,9.13
2022-10-20T12:14:42.752Z,9.07
2022-10-20T12:17:36.325Z,9.33
2022-10-20T12:20:20.963Z,9.83
2022-10-20T12:22:53.183Z,10.03
2022-10-20T12:25:25.724Z,10.77
2022-10-20T12:28:22.640Z,10.93
2022-10-20T12:30:59.526Z,10.60
2022-10-20T12:33:42.751Z,10.60
2022-10-20T12:36:18.865Z,11.43
2022-10-20T12:38:52.341Z,10.30
2022-10-20T12:41:30.548Z,10.83
2022-10-20T12:44:15.344Z,10.60
2022-10-20T12:46:51.589Z,10.93
2022-10-20T12:49:33.388Z,10.97
2022-10-20T12:52:02.122Z,10.60
2022-10-20T12:54:36.594Z,11.00
2022-10-20T12:57:25.160Z,11.43
2022-10-20T12:59:54.622Z,10.90
2022-10-20T13:02:24.164Z,9.70
2022-10-20T13:05:08.813Z,10.27
2022-10-20T13:07:52.449Z,10.57
2022-10-20T13:10:31.215Z,10.37
2022-10-20T13:13:03.773Z,9.90
2022-10-20T13:15:36.438Z,9.57
2022-10-20T13:18:12.454Z,11.27
2022-10-20T13:20:57.350Z,11.07
2022-10-20T13:23:29.937Z,11.10
2022-10-20T13:26:02.832Z,10.57
2022-10-20T13:28:32.394Z,9.63
2022-10-20T13:31:32.728Z,10.70
2022-10-20T13:34:18.469Z,11.10
2022-10-20T13:37:21.655Z,10.00
2022-10-20T13:40:23.385Z,10.10
2022-10-20T13:43:09.345Z,10.07
2022-10-20T13:46:16.884Z,10.00
2022-10-20T13:49:04.751Z,9.77
2022-10-20T13:51:42.686Z,9.87
2022-10-20T13:54:22.214Z,10.10
2022-10-20T13:56:50.572Z,10.00
2022-10-20T13:59:20.775Z,10.00
2022-10-20T14:01:57.207Z,10.10
2022-10-20T14:04:30.370Z,10.00
2022-10-20T14:07:05.929Z,9.57
2022-10-20T14:09:32.468Z,9.70
2022-10-20T14:12:06.410Z,9.33
2022-10-20T14:14:33.664Z,8.93
2022-10-20T14:17:06.584Z,9.70
2022-10-20T14:19:33.840Z,9.23
2022-10-20T14:22:23.157Z,9.17
2022-10-20T14:24:52.812Z,9.63
2022-10-20T14:27:23.308Z,9.33
2022-10-20T14:29:51.731Z,8.97
2022-10-20T14:32:23.225Z,9.40
2022-10-20T14:34:58.962Z,9.33
2022-10-20T14:37:28.452Z,9.37
2022-10-20T14:39:55.056Z,9.10
2022-10-20T14:42:27.475Z,8.73
2022-10-20T14:44:57.403Z,8.83
2022-10-20T14:47:25.084Z,8.67
2022-10-20T14:49:54.645Z,8.87
2022-10-20T14:52:24.013Z,9.43
2022-10-20T14:54:51.741Z,9.70
2022-10-20T14:57:18.714Z,8.57
2022-10-20T15:00:04.185Z,9.23
2022-10-20T15:02:34.549Z,8.83
2022-10-20T15:05:42.584Z,9.07
2022-10-20T15:08:24.138Z,8.70
2022-10-20T15:10:50.691Z,8.67
2022-10-20T15:13:29.825Z,8.73
2022-10-20T15:15:57.964Z,8.73
2022-10-20T15:18:25.512Z,8.30
2022-10-20T15:20:54.300Z,8.77
2022-10-20T15:23:29.331Z,9.00
2022-10-20T15:26:25.190Z,8.10
2022-10-20T15:28:52.205Z,8.67
2022-10-20T15:31:24.500Z,8.67
2022-10-20T15:33:52.183Z,8.40
2022-10-20T15:36:28.459Z,8.50
2022-10-20T15:38:56.518Z,8.97
2022-10-20T15:41:25.571Z,8.80
2022-10-20T15:43:53.197Z,9.07
2022-10-20T15:46:20.936Z,8.10
2022-10-20T15:48:47.575Z,8.60
2022-10-20T15:51:23.623Z,8.80
2022-10-20T15:53:50.239Z,8.77
2022-10-20T15:56:18.009Z,9.40
2022-10-20T15:58:45.190Z,9.20
2022-10-20T16:01:17.204Z,9.50
2022-10-20T16:03:44.423Z,8.50
2022-10-20T16:06:15.618Z,8.33
2022-10-20T16:08:47.238Z,8.87
2022-10-20T16:11:17.156Z,9.03
2022-10-20T16:13:44.102Z,8.57
2022-10-20T16:16:20.241Z,9.10
2022-10-20T16:18:47.581Z,8.10
2022-10-20T16:21:14.226Z,9.00
2022-10-20T16:23:42.631Z,8.87
2022-10-20T16:26:13.178Z,8.47
2022-10-20T16:28:42.093Z,9.00
2022-10-20T16:31:11.369Z,8.93
2022-10-20T16:33:38.198Z,8.97
2022-10-20T16:38:57.567Z,9.30
2022-10-20T16:41:24.548Z,8.77
2022-10-20T16:43:51.098Z,9.20
2022-10-20T16:46:17.839Z,9.87
2022-10-20T16:48:47.591Z,9.63
2022-10-20T16:51:15.573Z,9.87
2022-10-20T16:53:42.143Z,9.87
2022-10-20T16:56:08.934Z,9.27
2022-10-20T16:58:35.588Z,9.60
2022-10-20T17:01:04.238Z,9.07
2022-10-20T17:03:31.241Z,8.60
2022-10-20T17:06:00.877Z,9.77
2022-10-20T17:08:34.010Z,9.00
2022-10-20T17:11:03.954Z,10.47
2022-10-20T17:13:30.680Z,10.47
2022-10-20T17:16:02.884Z,9.30
2022-10-20T17:18:29.377Z,9.57
2022-10-20T17:20:55.924Z,10.00
2022-10-20T17:23:23.780Z,9.27
2022-10-20T17:25:51.891Z,9.20
2022-10-20T17:28:19.462Z,9.33
2022-10-20T17:30:47.736Z,10.37
2022-10-20T17:33:14.263Z,10.33
2022-10-20T17:35:41.019Z,9.77
2022-10-20T17:38:07.590Z,9.80
2022-10-20T17:40:38.236Z,10.23
2022-10-20T17:43:05.255Z,9.83
2022-10-20T17:45:34.977Z,10.27
2022-10-20T17:48:04.771Z,9.83
2022-10-20T17:50:31.668Z,9.60
2022-10-20T17:53:01.488Z,9.67
2022-10-20T17:55:28.713Z,9.67
2022-10-20T17:57:55.690Z,9.40
2022-10-20T18:00:31.794Z,9.70
2022-10-20T18:03:08.707Z,10.33
2022-10-20T18:05:38.175Z,10.33
2022-10-20T18:08:04.825Z,9.67
2022-10-20T18:10:31.316Z,9.30
2022-10-20T18:12:57.843Z,10.13
2022-10-20T18:15:24.380Z,10.10
2022-10-20T18:17:50.894Z,9.43
2022-10-20T18:20:19.705Z,10.07
2022-10-20T18:22:46.226Z,10.37
2022-10-20T18:25:12.755Z,10.03
2022-10-20T18:27:39.275Z,9.97
2022-10-20T18:30:08.160Z,9.03
2022-10-20T18:32:36.647Z,8.93
2022-10-20T18:35:03.517Z,9.37
2022-10-20T18:37:30.020Z,9.00
2022-10-20T18:39:56.518Z,9.43
2022-10-20T18:42:23.079Z,8.93
2022-10-20T18:44:49.614Z,9.20
2022-10-20T18:47:16.108Z,9.80
2022-10-20T18:49:42.607Z,8.67
2022-10-20T18:52:09.157Z,9.57
2022-10-20T18:54:35.726Z,9.40
2022-10-20T18:57:02.243Z,8.60
2022-10-20T18:59:28.706Z,8.87
2022-10-20T19:01:55.227Z,8.40
2022-10-20T19:04:21.923Z,9.03
2022-10-20T19:06:48.594Z,9.03
2022-10-20T19:09:19.384Z,8.80
2022-10-20T19:11:47.383Z,9.20
2022-10-20T19:14:14.737Z,9.27
2022-10-20T19:16:44.867Z,8.80
2022-10-20T19:19:11.618Z,8.73
2022-10-20T19:21:38.613Z,8.03
2022-10-20T19:24:06.951Z,8.93
2022-10-20T19:26:37.960Z,9.03
2022-10-20T19:29:08.769Z,8.87
2022-10-20T19:31:42.510Z,8.40
2022-10-20T19:34:16.581Z,9.67
2022-10-20T19:36:46.695Z,8.87
2022-10-20T19:39:15.645Z,8.93
2022-10-20T19:41:42.238Z,8.43
2022-10-20T19:44:12.470Z,8.57
2022-10-20T19:46:40.263Z,9.03
2022-10-20T19:51:34.801Z,8.93
2022-10-20T19:54:01.525Z,8.00
2022-10-20T19:56:28.341Z,8.20
2022-10-20T19:58:56.316Z,8.50
2022-10-20T20:01:23.533Z,8.40
2022-10-20T20:03:50.102Z,8.70
2022-10-20T20:06:18.793Z,8.50
2022-10-20T20:08:48.596Z,8.90
2022-10-20T20:11:23.908Z,8.03
2022-10-20T20:13:52.826Z,8.43
2022-10-20T20:16:19.977Z,8.87
2022-10-20T20:18:46.813Z,8.27
2022-10-20T20:21:13.866Z,8.17
2022-10-20T20:23:54.745Z,8.70
2022-10-20T20:26:26.225Z,8.63
2022-10-20T20:28:54.410Z,7.87
2022-10-20T20:31:22.011Z,8.50
2022-10-20T20:33:48.837Z,7.60
2022-10-20T20:36:15.815Z,8.40
2022-10-20T20:38:42.445Z,8.40
2022-10-20T20:41:17.757Z,7.73
2022-10-20T20:43:47.928Z,7.90
2022-10-20T20:46:16.731Z,8.17
2022-10-20T20:48:43.626Z,7.90
2022-10-20T20:51:11.649Z,8.13
2022-10-20T20:53:39.627Z,7.40
2022-10-20T20:56:09.654Z,7.13
2022-10-20T20:58:36.810Z,7.50
2022-10-20T21:01:12.797Z,8.13
2022-10-20T21:03:39.796Z,7.37
2022-10-20T21:06:15.252Z,7.60
2022-10-20T21:08:43.691Z,7.53
2022-10-20T21:11:21.880Z,7.80
2022-10-20T21:13:50.478Z,8.00
2022-10-20T21:16:19.697Z,7.97
2022-10-20T21:18:48.386Z,7.80
2022-10-20T21:21:17.308Z,7.90
2022-10-20T21:23:44.464Z,8.10
2022-10-20T21:26:12.438Z,8.67
2022-10-20T21:28:39.454Z,7.23
2022-10-20T21:31:07.897Z,8.13
2022-10-20T21:33:36.141Z,7.73
2022-10-20T21:36:05.002Z,7.77
2022-10-20T21:38:32.628Z,7.90
2022-10-20T21:41:08.031Z,8.30
2022-10-20T21:43:36.768Z,8.00
2022-10-20T21:46:10.500Z,7.87
2022-10-20T21:48:37.025Z,8.20
2022-10-20T21:51:16.483Z,8.67
2022-10-20T21:53:43.333Z,8.10
2022-10-20T21:56:11.750Z,8.33
2022-10-20T21:58:39.076Z,8.93
2022-10-20T22:01:17.319Z,8.07
2022-10-20T22:03:45.449Z,8.47
2022-10-20T22:06:13.437Z,8.40
2022-10-20T22:08:42.685Z,9.00
2022-10-20T22:11:14.686Z,8.70
2022-10-20T22:13:41.653Z,8.37
2022-10-20T22:16:15.150Z,8.27
2022-10-20T22:18:42.219Z,9.03
2022-10-20T22:21:17.746Z,8.93
2022-10-20T22:23:45.277Z,8.60
2022-10-20T22:26:12.398Z,9.67
2022-10-20T22:28:39.467Z,9.70
2022-10-20T22:31:07.457Z,9.70
2022-10-20T22:33:34.730Z,9.80
2022-10-20T22:36:01.243Z,9.17
2022-10-20T22:38:27.770Z,9.30
2022-10-20T22:40:58.878Z,9.53
2022-10-20T22:43:25.958Z,9.47
2022-10-20T22:45:52.539Z,9.07
2022-10-20T22:48:19.437Z,10.07
2022-10-20T22:50:46.038Z,9.30
2022-10-20T22:53:12.687Z,9.80
2022-10-20T22:55:39.205Z,9.90
2022-10-20T22:58:05.704Z,9.53
2022-10-20T23:00:32.320Z,10.60
2022-10-20T23:02:58.990Z,10.03
2022-10-20T23:05:25.549Z,10.33
2022-10-20T23:07:52.245Z,11.63
2022-10-20T23:10:18.729Z,11.10
2022-10-20T23:12:45.246Z,11.00
2022-10-20T23:15:11.998Z,10.60
2022-10-20T23:17:39.145Z,10.87
2022-10-20T23:20:06.282Z,11.10
2022-10-20T23:22:32.888Z,10.73
2022-10-20T23:24:59.506Z,11.23
2022-10-20T23:27:26.034Z,11.37
2022-10-20T23:29:52.600Z,11.73
2022-10-20T23:32:19.290Z,11.80
2022-10-20T23:34:45.851Z,11.23
2022-10-20T23:37:12.366Z,11.67
2022-10-20T23:39:39.230Z,12.10
2022-10-20T23:42:07.320Z,11.93
2022-10-20T23:44:34.300Z,12.50
2022-10-20T23:47:00.852Z,13.57
2022-10-20T23:49:28.033Z,12.83
2022-10-20T23:51:54.646Z,13.20
2022-10-20T23:54:21.213Z,12.83
2022-10-20T23:56:47.779Z,12.90
2022-10-20T23:59:14.425Z,12.90
